sensor_id;sensor_type;location;lat;lon;timestamp;pressure;altitude;pressure_sealevel;temperature;humidity
83896;BME280;74045;42.812;74.638;2024-01-07T00:00:10;90818.38;;;5.37;55.99
83896;BME280;74045;42.812;74.638;2024-01-07T00:02:36;91081.13;;;7.21;56.24
83896;BME280;74045;42.812;74.638;2024-01-07T00:05:02;91096.16;;;7.20;56.11
83896;BME280;74045;42.812;74.638;2024-01-07T00:07:28;91046.31;;;6.88;56.53
83896;BME280;74045;42.812;74.638;2024-01-07T00:09:54;91065.78;;;7.05;56.23
83896;BME280;74045;42.812;74.638;2024-01-07T00:12:19;91041.09;;;6.84;56.13
83896;BME280;74045;42.812;74.638;2024-01-07T00:14:45;91087.91;;;7.11;56.90
83896;BME280;74045;42.812;74.638;2024-01-07T00:17:11;91096.91;;;7.10;56.96
83896;BME280;74045;42.812;74.638;2024-01-07T00:19:36;91083.41;;;7.08;57.05
83896;BME280;74045;42.812;74.638;2024-01-07T00:22:03;91085.69;;;7.06;56.80
83896;BME280;74045;42.812;74.638;2024-01-07T00:24:29;91078.94;;;6.90;56.67
83896;BME280;74045;42.812;74.638;2024-01-07T00:26:55;91079.28;;;7.00;57.29
83896;BME280;74045;42.812;74.638;2024-01-07T00:29:21;91074.81;;;6.93;57.52
83896;BME280;74045;42.812;74.638;2024-01-07T00:31:47;91071.44;;;6.89;57.09
83896;BME280;74045;42.812;74.638;2024-01-07T00:34:12;91102.94;;;7.03;57.81
83896;BME280;74045;42.812;74.638;2024-01-07T00:36:38;91102.94;;;7.00;57.46
83896;BME280;74045;42.812;74.638;2024-01-07T00:39:04;91081.56;;;6.90;57.23
83896;BME280;74045;42.812;74.638;2024-01-07T00:41:30;91076.69;;;6.89;57.06
83896;BME280;74045;42.812;74.638;2024-01-07T00:43:55;91105.91;;;7.05;56.99
83896;BME280;74045;42.812;74.638;2024-01-07T00:46:21;91100.66;;;7.05;57.26
83896;BME280;74045;42.812;74.638;2024-01-07T00:48:47;91101.44;;;7.06;57.96
83896;BME280;74045;42.812;74.638;2024-01-07T00:51:13;91101.44;;;7.02;57.63
83896;BME280;74045;42.812;74.638;2024-01-07T00:53:39;91091.66;;;7.03;57.46
83896;BME280;74045;42.812;74.638;2024-01-07T00:56:05;91100.31;;;7.07;57.89
83896;BME280;74045;42.812;74.638;2024-01-07T00:58:31;91060.94;;;6.96;56.99
83896;BME280;74045;42.812;74.638;2024-01-07T01:00:57;91088.25;;;7.16;57.03
83896;BME280;74045;42.812;74.638;2024-01-07T01:03:23;91102.16;;;7.21;57.10
83896;BME280;74045;42.812;74.638;2024-01-07T01:05:48;91089.78;;;7.17;57.45
83896;BME280;74045;42.812;74.638;2024-01-07T01:08:14;91096.50;;;7.18;56.57
83896;BME280;74045;42.812;74.638;2024-01-07T01:10:40;91094.63;;;7.26;56.26
83896;BME280;74045;42.812;74.638;2024-01-07T01:13:05;91072.88;;;7.18;56.22
83896;BME280;74045;42.812;74.638;2024-01-07T01:15:31;91079.59;;;7.27;55.92
83896;BME280;74045;42.812;74.638;2024-01-07T01:17:56;91072.50;;;7.24;55.93
83896;BME280;74045;42.812;74.638;2024-01-07T01:20:22;91093.09;;;7.39;55.84
83896;BME280;74045;42.812;74.638;2024-01-07T01:22:48;91087.44;;;7.41;55.85
83896;BME280;74045;42.812;74.638;2024-01-07T01:25:13;91096.81;;;7.42;56.13
83896;BME280;74045;42.812;74.638;2024-01-07T01:27:39;91063.84;;;7.20;56.00
83896;BME280;74045;42.812;74.638;2024-01-07T01:30:05;91084.03;;;7.44;56.34
83896;BME280;74045;42.812;74.638;2024-01-07T01:32:31;91092.66;;;7.45;56.27
83896;BME280;74045;42.812;74.638;2024-01-07T01:34:57;91090.81;;;7.45;56.24
83896;BME280;74045;42.812;74.638;2024-01-07T01:37:22;91012.53;;;6.93;56.79
83896;BME280;74045;42.812;74.638;2024-01-07T01:39:48;91090.06;;;7.41;56.79
83896;BME280;74045;42.812;74.638;2024-01-07T01:42:14;91091.56;;;7.38;56.78
83896;BME280;74045;42.812;74.638;2024-01-07T01:44:40;91072.81;;;7.33;56.61
83896;BME280;74045;42.812;74.638;2024-01-07T01:47:07;91047.72;;;7.14;56.20
83896;BME280;74045;42.812;74.638;2024-01-07T01:49:33;91081.06;;;7.35;57.07
83896;BME280;74045;42.812;74.638;2024-01-07T01:52:01;91039.13;;;7.10;56.03
83896;BME280;74045;42.812;74.638;2024-01-07T01:54:27;91084.47;;;7.32;56.12
83896;BME280;74045;42.812;74.638;2024-01-07T01:56:52;91084.50;;;7.28;56.43
83896;BME280;74045;42.812;74.638;2024-01-07T01:59:18;91101.34;;;7.31;56.31
83896;BME280;74045;42.812;74.638;2024-01-07T02:01:44;91070.63;;;7.17;56.32
83896;BME280;74045;42.812;74.638;2024-01-07T02:04:10;91030.19;;;6.93;56.42
83896;BME280;74045;42.812;74.638;2024-01-07T02:06:36;91092.75;;;7.27;56.25
83896;BME280;74045;42.812;74.638;2024-01-07T02:09:02;91006.97;;;6.66;56.35
83896;BME280;74045;42.812;74.638;2024-01-07T02:11:28;91021.97;;;6.77;56.54
83896;BME280;74045;42.812;74.638;2024-01-07T02:13:54;91077.03;;;7.12;56.62
83896;BME280;74045;42.812;74.638;2024-01-07T02:16:20;91084.91;;;7.12;57.53
83896;BME280;74045;42.812;74.638;2024-01-07T02:18:46;91088.28;;;7.13;57.41
83896;BME280;74045;42.812;74.638;2024-01-07T02:21:13;91097.28;;;7.15;57.43
83896;BME280;74045;42.812;74.638;2024-01-07T02:23:40;91049.34;;;6.72;57.09
83896;BME280;74045;42.812;74.638;2024-01-07T02:26:05;91093.16;;;7.11;57.42
83896;BME280;74045;42.812;74.638;2024-01-07T02:28:32;91097.66;;;7.14;57.73
83896;BME280;74045;42.812;74.638;2024-01-07T02:30:58;91108.94;;;7.14;57.63
83896;BME280;74045;42.812;74.638;2024-01-07T02:33:24;91029.88;;;6.59;58.02
83896;BME280;74045;42.812;74.638;2024-01-07T02:35:50;91114.94;;;7.11;57.86
83896;BME280;74045;42.812;74.638;2024-01-07T02:38:15;91112.31;;;7.11;57.99
83896;BME280;74045;42.812;74.638;2024-01-07T02:40:41;91113.81;;;7.09;58.03
83896;BME280;74045;42.812;74.638;2024-01-07T02:43:07;91066.22;;;6.75;57.88
83896;BME280;74045;42.812;74.638;2024-01-07T02:45:33;91118.28;;;7.08;58.55
83896;BME280;74045;42.812;74.638;2024-01-07T02:47:59;91095.81;;;6.93;58.02
83896;BME280;74045;42.812;74.638;2024-01-07T02:50:25;91119.44;;;7.07;58.67
83896;BME280;74045;42.812;74.638;2024-01-07T02:52:50;91109.34;;;6.95;58.21
83896;BME280;74045;42.812;74.638;2024-01-07T02:55:17;91121.69;;;7.05;58.32
83896;BME280;74045;42.812;74.638;2024-01-07T02:57:43;91126.19;;;7.08;58.31
83896;BME280;74045;42.812;74.638;2024-01-07T03:00:09;91050.16;;;6.58;58.43
83896;BME280;74045;42.812;74.638;2024-01-07T03:02:34;91131.44;;;7.12;58.21
83896;BME280;74045;42.812;74.638;2024-01-07T03:05:00;91125.78;;;7.13;58.09
83896;BME280;74045;42.812;74.638;2024-01-07T03:07:26;91116.44;;;7.09;58.64
83896;BME280;74045;42.812;74.638;2024-01-07T03:09:51;91126.53;;;7.25;58.97
83896;BME280;74045;42.812;74.638;2024-01-07T03:12:17;91111.16;;;7.23;58.11
83896;BME280;74045;42.812;74.638;2024-01-07T03:14:43;91116.38;;;7.34;57.68
83896;BME280;74045;42.812;74.638;2024-01-07T03:17:12;91102.13;;;7.24;57.47
83896;BME280;74045;42.812;74.638;2024-01-07T03:19:40;91113.34;;;7.43;57.57
83896;BME280;74045;42.812;74.638;2024-01-07T03:22:07;91103.19;;;7.48;57.41
83896;BME280;74045;42.812;74.638;2024-01-07T03:24:33;91103.50;;;7.61;56.77
83896;BME280;74045;42.812;74.638;2024-01-07T03:26:59;91109.09;;;7.74;56.40
83896;BME280;74045;42.812;74.638;2024-01-07T03:29:24;91092.22;;;7.68;56.90
83896;BME280;74045;42.812;74.638;2024-01-07T03:31:50;91110.88;;;7.91;56.32
83896;BME280;74045;42.812;74.638;2024-01-07T03:34:16;91018.72;;;7.39;55.81
83896;BME280;74045;42.812;74.638;2024-01-07T03:36:42;91110.38;;;8.11;55.75
83896;BME280;74045;42.812;74.638;2024-01-07T03:39:08;91050.44;;;7.80;55.62
83896;BME280;74045;42.812;74.638;2024-01-07T03:41:34;91060.13;;;7.94;55.66
83896;BME280;74045;42.812;74.638;2024-01-07T03:43:59;91112.84;;;8.39;55.49
83896;BME280;74045;42.812;74.638;2024-01-07T03:46:25;91118.09;;;8.46;55.04
83896;BME280;74045;42.812;74.638;2024-01-07T03:48:51;91111.63;;;8.55;55.59
83896;BME280;74045;42.812;74.638;2024-01-07T03:51:16;91108.56;;;8.60;54.89
83896;BME280;74045;42.812;74.638;2024-01-07T03:53:42;91114.91;;;8.69;54.91
83896;BME280;74045;42.812;74.638;2024-01-07T03:56:08;91108.44;;;8.78;54.36
83896;BME280;74045;42.812;74.638;2024-01-07T03:58:33;91109.47;;;8.87;54.07
83896;BME280;74045;42.812;74.638;2024-01-07T04:01:00;91032.69;;;8.47;54.06
83896;BME280;74045;42.812;74.638;2024-01-07T04:03:26;91101.00;;;9.07;53.91
83896;BME280;74045;42.812;74.638;2024-01-07T04:05:52;91087.13;;;9.03;53.99
83896;BME280;74045;42.812;74.638;2024-01-07T04:08:18;91079.94;;;9.07;53.39
83896;BME280;74045;42.812;74.638;2024-01-07T04:10:43;91092.97;;;9.21;52.91
83896;BME280;74045;42.812;74.638;2024-01-07T04:13:09;91029.09;;;8.72;52.88
83896;BME280;74045;42.812;74.638;2024-01-07T04:15:35;91012.19;;;8.69;52.57
83896;BME280;74045;42.812;74.638;2024-01-07T04:18:02;90943.09;;;8.17;52.88
83896;BME280;74045;42.812;74.638;2024-01-07T04:20:28;91085.34;;;9.30;52.81
83896;BME280;74045;42.812;74.638;2024-01-07T04:22:55;91085.34;;;9.30;52.82
83896;BME280;74045;42.812;74.638;2024-01-07T04:25:20;91085.31;;;9.34;52.44
83896;BME280;74045;42.812;74.638;2024-01-07T04:27:46;91086.00;;;9.38;52.49
83896;BME280;74045;42.812;74.638;2024-01-07T04:30:12;91025.78;;;9.02;53.09
83896;BME280;74045;42.812;74.638;2024-01-07T04:32:37;91061.66;;;9.27;53.00
83896;BME280;74045;42.812;74.638;2024-01-07T04:35:03;91067.59;;;9.34;52.92
83896;BME280;74045;42.812;74.638;2024-01-07T04:37:29;91052.56;;;9.31;53.23
83896;BME280;74045;42.812;74.638;2024-01-07T04:39:55;91075.03;;;9.43;52.90
83896;BME280;74045;42.812;74.638;2024-01-07T04:42:20;91053.59;;;9.41;52.94
83896;BME280;74045;42.812;74.638;2024-01-07T04:44:46;91059.94;;;9.47;52.86
83896;BME280;74045;42.812;74.638;2024-01-07T04:47:31;91044.13;;;9.44;53.50
83896;BME280;74045;42.812;74.638;2024-01-07T04:49:59;91044.94;;;9.40;52.97
83896;BME280;74045;42.812;74.638;2024-01-07T04:52:25;91061.03;;;9.50;53.15
83896;BME280;74045;42.812;74.638;2024-01-07T04:54:52;91038.97;;;9.36;52.85
83896;BME280;74045;42.812;74.638;2024-01-07T04:57:18;91050.81;;;9.52;52.74
83896;BME280;74045;42.812;74.638;2024-01-07T04:59:45;91040.69;;;9.50;53.09
83896;BME280;74045;42.812;74.638;2024-01-07T05:02:11;90950.56;;;8.98;52.17
83896;BME280;74045;42.812;74.638;2024-01-07T05:04:37;91045.78;;;9.64;51.84
83896;BME280;74045;42.812;74.638;2024-01-07T05:07:03;91058.09;;;9.75;52.09
83896;BME280;74045;42.812;74.638;2024-01-07T05:09:29;91031.75;;;9.71;52.00
83896;BME280;74045;42.812;74.638;2024-01-07T05:11:54;91037.28;;;9.80;51.71
83896;BME280;74045;42.812;74.638;2024-01-07T05:14:20;90891.19;;;8.89;51.92
83896;BME280;74045;42.812;74.638;2024-01-07T05:16:48;91053.97;;;10.01;52.07
83896;BME280;74045;42.812;74.638;2024-01-07T05:19:13;91069.75;;;10.04;52.04
83896;BME280;74045;42.812;74.638;2024-01-07T05:21:39;91049.34;;;10.08;51.77
83896;BME280;74045;42.812;74.638;2024-01-07T05:24:05;91051.19;;;10.12;51.25
83896;BME280;74045;42.812;74.638;2024-01-07T05:26:31;90995.84;;;9.77;51.31
83896;BME280;74045;42.812;74.638;2024-01-07T05:29:03;91049.63;;;10.14;51.19
83896;BME280;74045;42.812;74.638;2024-01-07T05:31:28;91041.38;;;10.12;51.00
83896;BME280;74045;42.812;74.638;2024-01-07T05:33:54;91038.06;;;10.04;51.14
83896;BME280;74045;42.812;74.638;2024-01-07T05:36:19;91038.81;;;10.05;51.07
83896;BME280;74045;42.812;74.638;2024-01-07T05:38:45;90982.53;;;9.61;50.75
83896;BME280;74045;42.812;74.638;2024-01-07T05:41:11;91033.28;;;9.96;51.23
83896;BME280;74045;42.812;74.638;2024-01-07T05:43:36;91038.19;;;9.97;51.28
83896;BME280;74045;42.812;74.638;2024-01-07T05:46:02;91043.47;;;9.97;51.45
83896;BME280;74045;42.812;74.638;2024-01-07T05:48:28;91029.88;;;9.99;51.36
83896;BME280;74045;42.812;74.638;2024-01-07T05:50:54;91003.69;;;9.84;51.03
83896;BME280;74045;42.812;74.638;2024-01-07T05:53:20;91026.13;;;9.96;51.05
83896;BME280;74045;42.812;74.638;2024-01-07T05:55:46;91007.47;;;9.83;50.72
83896;BME280;74045;42.812;74.638;2024-01-07T05:58:12;91016.38;;;9.93;51.24
83896;BME280;74045;42.812;74.638;2024-01-07T06:00:38;91018.72;;;9.88;51.31
83896;BME280;74045;42.812;74.638;2024-01-07T06:03:04;91028.91;;;9.85;51.40
83896;BME280;74045;42.812;74.638;2024-01-07T06:05:30;91015.84;;;9.78;51.80
83896;BME280;74045;42.812;74.638;2024-01-07T06:07:56;90950.13;;;9.33;52.02
83896;BME280;74045;42.812;74.638;2024-01-07T06:10:21;91026.28;;;9.85;52.33
83896;BME280;74045;42.812;74.638;2024-01-07T06:12:47;91014.28;;;9.81;52.58
83896;BME280;74045;42.812;74.638;2024-01-07T06:15:13;91018.03;;;9.83;52.64
83896;BME280;74045;42.812;74.638;2024-01-07T06:17:38;91015.03;;;9.81;53.13
83896;BME280;74045;42.812;74.638;2024-01-07T06:20:05;91001.13;;;9.77;54.02
83896;BME280;74045;42.812;74.638;2024-01-07T06:22:31;91003.31;;;9.82;53.92
83896;BME280;74045;42.812;74.638;2024-01-07T06:24:56;90917.09;;;9.25;54.10
83896;BME280;74045;42.812;74.638;2024-01-07T06:27:22;90997.25;;;9.85;54.50
83896;BME280;74045;42.812;74.638;2024-01-07T06:29:48;90996.56;;;9.81;54.67
83896;BME280;74045;42.812;74.638;2024-01-07T06:32:13;90994.97;;;9.88;54.69
83896;BME280;74045;42.812;74.638;2024-01-07T06:34:39;90990.84;;;9.86;55.18
83896;BME280;74045;42.812;74.638;2024-01-07T06:37:05;90993.72;;;9.96;55.40
83896;BME280;74045;42.812;74.638;2024-01-07T06:39:33;90991.44;;;9.98;55.05
83896;BME280;74045;42.812;74.638;2024-01-07T06:41:59;90993.63;;;10.03;55.33
83896;BME280;74045;42.812;74.638;2024-01-07T06:44:25;90992.41;;;10.07;54.69
83896;BME280;74045;42.812;74.638;2024-01-07T06:46:51;90982.13;;;10.13;55.28
83896;BME280;74045;42.812;74.638;2024-01-07T06:49:17;90969.38;;;10.12;55.02
83896;BME280;74045;42.812;74.638;2024-01-07T06:51:43;90970.03;;;10.16;55.14
83896;BME280;74045;42.812;74.638;2024-01-07T06:54:08;90967.34;;;10.19;54.83
83896;BME280;74045;42.812;74.638;2024-01-07T06:56:34;90893.84;;;9.71;54.87
83896;BME280;74045;42.812;74.638;2024-01-07T06:59:00;90970.25;;;10.28;54.32
83896;BME280;74045;42.812;74.638;2024-01-07T07:01:25;90891.50;;;9.76;54.32
83896;BME280;74045;42.812;74.638;2024-01-07T07:03:51;90964.56;;;10.30;54.98
83896;BME280;74045;42.812;74.638;2024-01-07T07:06:17;90899.25;;;9.87;54.85
83896;BME280;74045;42.812;74.638;2024-01-07T07:08:43;90883.22;;;9.74;54.93
83896;BME280;74045;42.812;74.638;2024-01-07T07:11:09;90952.88;;;10.31;55.08
83896;BME280;74045;42.812;74.638;2024-01-07T07:13:34;90949.00;;;10.36;55.32
83896;BME280;74045;42.812;74.638;2024-01-07T07:16:00;90947.06;;;10.40;55.53
83896;BME280;74045;42.812;74.638;2024-01-07T07:18:26;90876.19;;;9.91;56.07
83896;BME280;74045;42.812;74.638;2024-01-07T07:20:52;90952.09;;;10.54;56.37
83896;BME280;74045;42.812;74.638;2024-01-07T07:23:18;90905.00;;;10.29;56.66
83896;BME280;74045;42.812;74.638;2024-01-07T07:25:44;90951.16;;;10.64;56.59
83896;BME280;74045;42.812;74.638;2024-01-07T07:28:09;90941.28;;;10.68;56.79
83896;BME280;74045;42.812;74.638;2024-01-07T07:30:35;90945.66;;;10.75;56.83
83896;BME280;74045;42.812;74.638;2024-01-07T07:33:02;90944.81;;;10.82;56.72
83896;BME280;74045;42.812;74.638;2024-01-07T07:35:28;90936.34;;;10.90;56.06
83896;BME280;74045;42.812;74.638;2024-01-07T07:37:54;90938.44;;;10.99;55.38
83896;BME280;74045;42.812;74.638;2024-01-07T07:40:20;90916.88;;;11.01;55.32
83896;BME280;74045;42.812;74.638;2024-01-07T07:42:46;90924.53;;;11.15;55.17
83896;BME280;74045;42.812;74.638;2024-01-07T07:45:12;90920.91;;;11.25;55.04
83896;BME280;74045;42.812;74.638;2024-01-07T07:47:38;90896.19;;;11.15;54.36
83896;BME280;74045;42.812;74.638;2024-01-07T07:50:06;90918.31;;;11.41;53.10
83896;BME280;74045;42.812;74.638;2024-01-07T07:52:32;90910.97;;;11.49;51.36
83896;BME280;74045;42.812;74.638;2024-01-07T07:54:58;90909.97;;;11.59;50.99
83896;BME280;74045;42.812;74.638;2024-01-07T07:57:24;90910.25;;;11.65;49.34
83896;BME280;74045;42.812;74.638;2024-01-07T07:59:50;90880.47;;;11.45;48.96
83896;BME280;74045;42.812;74.638;2024-01-07T08:02:17;90904.06;;;11.72;48.32
83896;BME280;74045;42.812;74.638;2024-01-07T08:04:43;90900.84;;;11.80;47.71
83896;BME280;74045;42.812;74.638;2024-01-07T08:07:09;90908.66;;;11.88;47.65
83896;BME280;74045;42.812;74.638;2024-01-07T08:09:36;90912.28;;;11.94;47.40
83896;BME280;74045;42.812;74.638;2024-01-07T08:12:05;90902.34;;;11.98;46.44
83896;BME280;74045;42.812;74.638;2024-01-07T08:14:31;90914.00;;;12.00;46.29
83896;BME280;74045;42.812;74.638;2024-01-07T08:16:58;90894.41;;;11.98;45.53
83896;BME280;74045;42.812;74.638;2024-01-07T08:19:23;90901.09;;;12.02;45.98
83896;BME280;74045;42.812;74.638;2024-01-07T08:21:49;90909.03;;;12.02;45.41
83896;BME280;74045;42.812;74.638;2024-01-07T08:24:16;90887.34;;;11.75;45.17
83896;BME280;74045;42.812;74.638;2024-01-07T08:26:42;90906.06;;;12.00;45.67
83896;BME280;74045;42.812;74.638;2024-01-07T08:29:07;90827.47;;;11.48;45.34
83896;BME280;74045;42.812;74.638;2024-01-07T08:31:33;90901.94;;;11.99;45.66
83896;BME280;74045;42.812;74.638;2024-01-07T08:33:59;90898.94;;;11.97;46.31
83896;BME280;74045;42.812;74.638;2024-01-07T08:36:25;90885.31;;;11.99;46.59
83896;BME280;74045;42.812;74.638;2024-01-07T08:38:51;90903.41;;;12.17;47.21
83896;BME280;74045;42.812;74.638;2024-01-07T08:41:16;90902.56;;;12.20;46.98
83896;BME280;74045;42.812;74.638;2024-01-07T08:43:42;90919.03;;;12.27;47.04
83896;BME280;74045;42.812;74.638;2024-01-07T08:46:09;90910.34;;;12.27;48.35
83896;BME280;74045;42.812;74.638;2024-01-07T08:48:35;90873.56;;;12.00;47.89
83896;BME280;74045;42.812;74.638;2024-01-07T08:51:00;90909.19;;;12.28;48.32
83896;BME280;74045;42.812;74.638;2024-01-07T08:53:26;90909.19;;;12.28;48.25
83896;BME280;74045;42.812;74.638;2024-01-07T08:55:52;90897.69;;;12.18;48.34
83896;BME280;74045;42.812;74.638;2024-01-07T08:58:17;90893.06;;;12.06;48.81
83896;BME280;74045;42.812;74.638;2024-01-07T09:00:44;90906.41;;;12.19;48.66
83896;BME280;74045;42.812;74.638;2024-01-07T09:03:09;90903.75;;;12.19;48.46
83896;BME280;74045;42.812;74.638;2024-01-07T09:05:36;90911.34;;;12.17;48.65
83896;BME280;74045;42.812;74.638;2024-01-07T09:08:02;90912.53;;;12.16;48.91
83896;BME280;74045;42.812;74.638;2024-01-07T09:10:28;90912.28;;;12.10;49.05
83896;BME280;74045;42.812;74.638;2024-01-07T09:12:53;90926.66;;;12.09;49.03
83896;BME280;74045;42.812;74.638;2024-01-07T09:15:20;90851.13;;;11.55;49.07
83896;BME280;74045;42.812;74.638;2024-01-07T09:17:46;90923.75;;;12.03;49.10
83896;BME280;74045;42.812;74.638;2024-01-07T09:20:12;90922.78;;;11.97;49.72
83896;BME280;74045;42.812;74.638;2024-01-07T09:22:38;90917.25;;;11.92;49.34
83896;BME280;74045;42.812;74.638;2024-01-07T09:25:05;90734.72;;;10.57;49.82
83896;BME280;74045;42.812;74.638;2024-01-07T09:27:32;90852.88;;;11.46;50.11
83896;BME280;74045;42.812;74.638;2024-01-07T09:29:58;90944.44;;;11.92;50.13
83896;BME280;74045;42.812;74.638;2024-01-07T09:32:24;90920.44;;;11.83;50.28
83896;BME280;74045;42.812;74.638;2024-01-07T09:34:49;90932.03;;;11.89;50.58
83896;BME280;74045;42.812;74.638;2024-01-07T09:37:16;90924.94;;;11.86;50.65
83896;BME280;74045;42.812;74.638;2024-01-07T09:39:42;90926.91;;;11.82;50.81
83896;BME280;74045;42.812;74.638;2024-01-07T09:42:12;90931.09;;;11.79;50.81
83896;BME280;74045;42.812;74.638;2024-01-07T09:44:39;90866.81;;;11.30;50.94
83896;BME280;74045;42.812;74.638;2024-01-07T09:47:07;90932.41;;;11.71;51.04
83896;BME280;74045;42.812;74.638;2024-01-07T09:49:35;90929.09;;;11.67;51.37
83896;BME280;74045;42.812;74.638;2024-01-07T09:52:02;90932.91;;;11.66;52.42
83896;BME280;74045;42.812;74.638;2024-01-07T09:54:30;90929.31;;;11.56;52.92
83896;BME280;74045;42.812;74.638;2024-01-07T09:57:00;90941.81;;;11.56;52.99
83896;BME280;74045;42.812;74.638;2024-01-07T09:59:30;90940.56;;;11.44;53.25
83896;BME280;74045;42.812;74.638;2024-01-07T10:01:59;90943.59;;;11.42;53.65
83896;BME280;74045;42.812;74.638;2024-01-07T10:04:25;90957.72;;;11.36;53.69
83896;BME280;74045;42.812;74.638;2024-01-07T10:06:51;90940.59;;;11.24;54.02
83896;BME280;74045;42.812;74.638;2024-01-07T10:09:22;90904.91;;;10.96;54.13
83896;BME280;74045;42.812;74.638;2024-01-07T10:11:49;90937.75;;;11.15;54.86
83896;BME280;74045;42.812;74.638;2024-01-07T10:14:15;90844.69;;;10.47;54.74
83896;BME280;74045;42.812;74.638;2024-01-07T10:16:41;90945.41;;;11.09;55.24
83896;BME280;74045;42.812;74.638;2024-01-07T10:19:07;90920.06;;;10.92;55.07
83896;BME280;74045;42.812;74.638;2024-01-07T10:21:36;90940.72;;;10.97;55.40
83896;BME280;74045;42.812;74.638;2024-01-07T10:24:11;90944.53;;;10.96;55.32
83896;BME280;74045;42.812;74.638;2024-01-07T10:26:37;90944.88;;;10.98;54.43
83896;BME280;74045;42.812;74.638;2024-01-07T10:29:03;90940.38;;;10.95;54.80
83896;BME280;74045;42.812;74.638;2024-01-07T10:31:29;90944.00;;;10.85;54.92
83896;BME280;74045;42.812;74.638;2024-01-07T10:33:56;90907.47;;;10.60;55.25
83896;BME280;74045;42.812;74.638;2024-01-07T10:36:24;90943.38;;;10.77;55.78
83896;BME280;74045;42.812;74.638;2024-01-07T10:38:50;90945.75;;;10.71;56.02
83896;BME280;74045;42.812;74.638;2024-01-07T10:41:18;90942.75;;;10.69;55.89
83896;BME280;74045;42.812;74.638;2024-01-07T10:43:47;90946.22;;;10.66;56.33
83896;BME280;74045;42.812;74.638;2024-01-07T10:46:14;90938.06;;;10.57;56.47
83896;BME280;74045;42.812;74.638;2024-01-07T10:48:59;90952.03;;;10.58;56.43
83896;BME280;74045;42.812;74.638;2024-01-07T10:51:27;90934.88;;;10.46;56.81
83896;BME280;74045;42.812;74.638;2024-01-07T10:53:55;90927.47;;;10.37;57.58
83896;BME280;74045;42.812;74.638;2024-01-07T10:56:25;90945.16;;;10.40;57.67
83896;BME280;74045;42.812;74.638;2024-01-07T10:58:52;90916.63;;;10.08;57.64
83896;BME280;74045;42.812;74.638;2024-01-07T11:01:19;90949.56;;;10.23;57.76
83896;BME280;74045;42.812;74.638;2024-01-07T11:04:37;90942.09;;;10.18;56.76
83896;BME280;74045;42.812;74.638;2024-01-07T11:07:19;90921.31;;;9.97;56.05
83896;BME280;74045;42.812;74.638;2024-01-07T11:10:01;90952.06;;;10.07;57.11
83896;BME280;74045;42.812;74.638;2024-01-07T11:12:31;90954.84;;;10.00;57.31
83896;BME280;74045;42.812;74.638;2024-01-07T11:14:57;90876.56;;;9.43;57.42
83896;BME280;74045;42.812;74.638;2024-01-07T11:17:42;90946.16;;;9.99;57.22
83896;BME280;74045;42.812;74.638;2024-01-07T11:20:20;90963.94;;;9.95;57.45
83896;BME280;74045;42.812;74.638;2024-01-07T11:22:46;90973.13;;;9.87;57.79
83896;BME280;74045;42.812;74.638;2024-01-07T11:25:29;90950.78;;;9.68;57.81
83896;BME280;74045;42.812;74.638;2024-01-07T11:27:57;90966.94;;;9.70;58.08
83896;BME280;74045;42.812;74.638;2024-01-07T11:30:23;90967.16;;;9.56;58.26
83896;BME280;74045;42.812;74.638;2024-01-07T11:32:56;90975.50;;;9.51;58.65
83896;BME280;74045;42.812;74.638;2024-01-07T11:35:56;90979.03;;;9.40;58.59
83896;BME280;74045;42.812;74.638;2024-01-07T11:38:23;90981.09;;;9.26;59.62
83896;BME280;74045;42.812;74.638;2024-01-07T11:40:49;90968.84;;;9.12;60.08
83896;BME280;74045;42.812;74.638;2024-01-07T11:43:16;90973.84;;;9.03;60.40
83896;BME280;74045;42.812;74.638;2024-01-07T11:45:41;90949.03;;;8.66;60.64
83896;BME280;74045;42.812;74.638;2024-01-07T11:48:07;90974.44;;;8.83;60.62
83896;BME280;74045;42.812;74.638;2024-01-07T11:50:35;90982.75;;;8.78;60.70
83896;BME280;74045;42.812;74.638;2024-01-07T11:53:00;90977.19;;;8.72;60.75
83896;BME280;74045;42.812;74.638;2024-01-07T11:55:27;90982.44;;;8.72;60.86
83896;BME280;74045;42.812;74.638;2024-01-07T11:57:55;90984.06;;;8.63;60.96
83896;BME280;74045;42.812;74.638;2024-01-07T12:00:21;90972.16;;;8.47;61.03
83896;BME280;74045;42.812;74.638;2024-01-07T12:02:47;90950.50;;;8.29;61.35
83896;BME280;74045;42.812;74.638;2024-01-07T12:05:13;90974.84;;;8.44;61.09
83896;BME280;74045;42.812;74.638;2024-01-07T12:07:41;90971.78;;;8.45;61.53
83896;BME280;74045;42.812;74.638;2024-01-07T12:10:08;90986.44;;;8.50;62.08
83896;BME280;74045;42.812;74.638;2024-01-07T12:12:39;90969.66;;;8.29;62.03
83896;BME280;74045;42.812;74.638;2024-01-07T12:15:06;90991.41;;;8.41;62.23
83896;BME280;74045;42.812;74.638;2024-01-07T12:17:32;90978.63;;;8.36;61.93
83896;BME280;74045;42.812;74.638;2024-01-07T12:20:00;91000.44;;;8.36;62.60
83896;BME280;74045;42.812;74.638;2024-01-07T12:22:28;90976.88;;;8.22;62.66
83896;BME280;74045;42.812;74.638;2024-01-07T12:25:03;90965.69;;;8.11;62.81
83896;BME280;74045;42.812;74.638;2024-01-07T12:27:29;90927.25;;;7.75;62.79
83896;BME280;74045;42.812;74.638;2024-01-07T12:29:56;91010.38;;;8.18;63.02
83896;BME280;74045;42.812;74.638;2024-01-07T12:32:22;90982.34;;;7.97;62.83
83896;BME280;74045;42.812;74.638;2024-01-07T12:34:48;90977.09;;;7.93;62.54
83896;BME280;74045;42.812;74.638;2024-01-07T12:37:14;90993.94;;;8.03;62.34
83896;BME280;74045;42.812;74.638;2024-01-07T12:39:43;90963.31;;;7.75;62.51
83896;BME280;74045;42.812;74.638;2024-01-07T12:42:09;90915.53;;;7.35;62.05
83896;BME280;74045;42.812;74.638;2024-01-07T12:44:36;90941.75;;;7.46;62.39
83896;BME280;74045;42.812;74.638;2024-01-07T12:47:02;90978.84;;;7.58;62.95
83896;BME280;74045;42.812;74.638;2024-01-07T12:49:31;90975.50;;;7.47;63.22
83896;BME280;74045;42.812;74.638;2024-01-07T12:51:57;90993.50;;;7.56;62.82
83896;BME280;74045;42.812;74.638;2024-01-07T12:54:23;90996.16;;;7.52;63.14